createdAt,value
2022-09-26T00:01:42.913Z,99488.00
2022-09-26T00:04:23.696Z,99489.00
2022-09-26T00:06:59.943Z,99483.40
2022-09-26T00:09:33.764Z,99483.20
2022-09-26T00:12:08.261Z,99474.80
2022-09-26T00:14:42.051Z,99472.60
2022-09-26T00:17:17.046Z,99465.20
2022-09-26T00:19:50.722Z,99463.40
2022-09-26T00:22:24.449Z,99461.60
2022-09-26T00:24:58.135Z,99461.80
2022-09-26T00:27:31.800Z,99464.00
2022-09-26T00:30:06.704Z,99467.20
2022-09-26T00:32:40.513Z,99466.20
2022-09-26T00:35:14.660Z,99471.20
2022-09-26T00:37:48.431Z,99467.20
2022-09-26T00:40:27.201Z,99468.00
2022-09-26T00:43:01.761Z,99466.60
2022-09-26T00:45:36.291Z,99465.00
2022-09-26T00:48:11.832Z,99464.60
2022-09-26T00:50:46.723Z,99460.80
2022-09-26T00:53:26.366Z,99454.60
2022-09-26T00:56:09.671Z,99450.20
2022-09-26T00:58:52.016Z,99443.60
2022-09-26T01:01:28.343Z,99440.80
2022-09-26T01:04:07.366Z,99439.60
2022-09-26T01:06:46.949Z,99439.80
2022-09-26T01:09:22.214Z,99438.40
2022-09-26T01:12:00.114Z,99435.00
2022-09-26T01:14:40.056Z,99438.80
2022-09-26T01:17:24.152Z,99434.20
2022-09-26T01:20:47.540Z,99435.60
2022-09-26T01:24:20.047Z,99431.80
2022-09-26T01:27:33.917Z,99435.00
2022-09-26T01:30:15.820Z,99433.20
2022-09-26T01:33:23.490Z,99430.60
2022-09-26T01:36:49.608Z,99420.60
2022-09-26T01:39:47.786Z,99420.60
2022-09-26T01:42:35.679Z,99416.40
2022-09-26T01:45:19.662Z,99417.40
2022-09-26T01:48:04.908Z,99417.80
2022-09-26T01:50:49.655Z,99416.80
2022-09-26T01:53:30.582Z,99411.00
2022-09-26T01:56:12.073Z,99414.20
2022-09-26T01:58:53.846Z,99415.00
2022-09-26T02:01:35.278Z,99416.40
2022-09-26T02:04:16.290Z,99411.40
2022-09-26T02:06:57.199Z,99406.00
2022-09-26T02:09:40.625Z,99403.00
2022-09-26T02:12:23.603Z,99400.00
2022-09-26T02:15:02.389Z,99399.00
2022-09-26T02:17:42.940Z,99395.60
2022-09-26T02:20:25.850Z,99393.80
2022-09-26T02:23:03.930Z,99392.60
2022-09-26T02:25:38.211Z,99389.80
2022-09-26T02:28:12.351Z,99389.20
2022-09-26T02:30:49.334Z,99387.80
2022-09-26T02:33:23.557Z,99382.60
2022-09-26T02:35:57.842Z,99379.20
2022-09-26T02:38:35.922Z,99383.20
2022-09-26T02:41:34.494Z,99380.40
2022-09-26T02:44:29.095Z,99382.20
2022-09-26T02:47:45.827Z,99383.20
2022-09-26T02:50:47.053Z,99374.80
2022-09-26T02:53:51.620Z,99375.00
2022-09-26T02:56:41.904Z,99366.40
2022-09-26T02:59:23.825Z,99372.00
2022-09-26T03:02:06.013Z,99378.80
2022-09-26T03:04:50.103Z,99383.00
2022-09-26T03:07:31.170Z,99383.00
2022-09-26T03:10:10.231Z,99378.80
2022-09-26T03:12:46.274Z,99378.20
2022-09-26T03:15:22.815Z,99378.80
2022-09-26T03:18:00.280Z,99376.80
2022-09-26T03:20:34.066Z,99378.20
2022-09-26T03:23:08.997Z,99381.60
2022-09-26T03:25:44.625Z,99377.40
2022-09-26T03:28:19.018Z,99377.80
2022-09-26T03:30:53.222Z,99373.00
2022-09-26T03:33:33.256Z,99370.80
2022-09-26T03:36:11.043Z,99365.60
2022-09-26T03:38:44.915Z,99367.60
2022-09-26T03:41:34.590Z,99370.40
2022-09-26T03:44:16.466Z,99372.20
2022-09-26T03:47:20.224Z,99363.80
2022-09-26T03:49:56.442Z,99360.00
2022-09-26T03:52:31.101Z,99358.20
2022-09-26T03:55:04.826Z,99356.60
2022-09-26T03:57:38.562Z,99353.80
2022-09-26T04:00:22.856Z,99354.20
2022-09-26T04:02:57.872Z,99352.60
2022-09-26T04:05:39.176Z,99349.00
2022-09-26T04:08:13.221Z,99348.20
2022-09-26T04:10:48.722Z,99348.40
2022-09-26T04:13:49.495Z,99344.80
2022-09-26T04:16:16.974Z,99338.00
2022-09-26T04:18:59.341Z,99338.20
2022-09-26T04:21:35.639Z,99337.20
2022-09-26T04:24:13.674Z,99329.00
2022-09-26T04:26:48.391Z,99329.00
2022-09-26T04:29:22.287Z,99331.40
2022-09-26T04:32:19.637Z,99329.40
2022-09-26T04:35:13.919Z,99326.60
2022-09-26T04:37:47.531Z,99324.40
2022-09-26T04:40:22.623Z,99321.80
2022-09-26T04:43:12.282Z,99319.20
2022-09-26T04:45:46.777Z,99317.20
2022-09-26T04:48:21.268Z,99319.60
2022-09-26T04:51:07.663Z,99322.80
2022-09-26T04:53:42.018Z,99326.40
2022-09-26T04:56:26.593Z,99324.80
2022-09-26T04:59:02.665Z,99322.20
2022-09-26T05:01:43.756Z,99316.60
2022-09-26T05:04:27.842Z,99317.80
2022-09-26T05:07:03.796Z,99321.80
2022-09-26T05:09:39.273Z,99314.20
2022-09-26T05:12:18.580Z,99315.60
2022-09-26T05:14:56.712Z,99319.00
2022-09-26T05:17:31.212Z,99319.40
2022-09-26T05:20:10.127Z,99324.60
2022-09-26T05:22:53.380Z,99321.80
2022-09-26T05:25:45.489Z,99322.00
2022-09-26T05:28:19.528Z,99320.00
2022-09-26T05:30:53.281Z,99312.60
2022-09-26T05:33:28.253Z,99309.60
2022-09-26T05:36:02.193Z,99298.60
2022-09-26T05:38:36.117Z,99302.80
2022-09-26T05:41:11.615Z,99306.60
2022-09-26T05:43:46.352Z,99301.80
2022-09-26T05:46:21.623Z,99301.00
2022-09-26T05:48:57.951Z,99303.80
2022-09-26T05:51:33.593Z,99310.40
2022-09-26T05:54:07.621Z,99302.20
2022-09-26T05:56:42.313Z,99304.60
2022-09-26T05:59:46.293Z,99301.80
2022-09-26T06:02:32.731Z,99301.40
2022-09-26T06:05:23.260Z,99302.40
2022-09-26T06:08:23.472Z,99306.60
2022-09-26T06:11:18.322Z,99308.60
2022-09-26T06:13:54.079Z,99309.20
2022-09-26T06:16:28.113Z,99311.00
2022-09-26T06:19:02.854Z,99316.60
2022-09-26T06:21:41.052Z,99316.40
2022-09-26T06:24:20.549Z,99313.00
2022-09-26T06:26:57.383Z,99315.20
2022-09-26T06:29:32.581Z,99315.20
2022-09-26T06:32:06.669Z,99308.80
2022-09-26T06:35:19.923Z,99316.20
2022-09-26T06:38:13.046Z,99317.60
2022-09-26T06:40:47.422Z,99318.00
2022-09-26T06:43:22.307Z,99313.80
2022-09-26T06:46:11.871Z,99319.00
2022-09-26T06:49:00.210Z,99317.40
2022-09-26T06:51:49.152Z,99323.60
2022-09-26T06:54:23.924Z,99321.40
2022-09-26T06:56:58.004Z,99324.20
2022-09-26T06:59:31.914Z,99323.80
2022-09-26T07:02:17.126Z,99327.40
2022-09-26T07:05:16.644Z,99333.60
2022-09-26T07:08:09.671Z,99330.80
2022-09-26T07:10:43.605Z,99328.00
2022-09-26T07:13:25.863Z,99323.60
2022-09-26T07:16:01.059Z,99327.20
2022-09-26T07:18:59.208Z,99324.40
2022-09-26T07:21:42.875Z,99323.20
2022-09-26T07:24:30.421Z,99326.60
2022-09-26T07:27:04.960Z,99324.80
2022-09-26T07:29:47.451Z,99319.20
2022-09-26T07:32:23.154Z,99318.20
2022-09-26T07:35:29.108Z,99318.20
2022-09-26T07:38:05.586Z,99314.40
2022-09-26T07:40:39.733Z,99318.20
2022-09-26T07:43:30.638Z,99311.40
2022-09-26T07:46:25.871Z,99310.40
2022-09-26T07:49:21.326Z,99305.40
2022-09-26T07:52:14.743Z,99302.00
2022-09-26T07:54:56.427Z,99299.00
2022-09-26T07:58:07.166Z,99298.20
2022-09-26T08:01:18.410Z,99292.00
2022-09-26T08:04:13.689Z,99290.80
2022-09-26T08:06:48.518Z,99294.20
2022-09-26T08:09:23.303Z,99291.60
2022-09-26T08:12:18.227Z,99293.80
2022-09-26T08:15:12.866Z,99286.00
2022-09-26T08:17:54.915Z,99284.00
2022-09-26T08:20:32.201Z,99288.80
2022-09-26T08:23:07.842Z,99286.20
2022-09-26T08:25:42.529Z,99284.80
2022-09-26T08:28:40.547Z,99282.80
2022-09-26T08:31:16.285Z,99282.00
2022-09-26T08:33:50.825Z,99282.40
2022-09-26T08:36:24.924Z,99275.20
2022-09-26T08:39:06.838Z,99274.20
2022-09-26T08:42:28.779Z,99276.40
2022-09-26T08:46:02.212Z,99266.60
2022-09-26T08:49:16.106Z,99265.80
2022-09-26T08:51:54.914Z,99265.40
2022-09-26T08:54:39.290Z,99264.40
2022-09-26T08:57:32.441Z,99258.20
2022-09-26T09:00:24.985Z,99259.80
2022-09-26T09:03:20.367Z,99258.00
2022-09-26T09:06:01.591Z,99261.60
2022-09-26T09:08:43.597Z,99259.40
2022-09-26T09:11:55.928Z,99265.00
2022-09-26T09:15:13.775Z,99260.40
2022-09-26T09:18:41.610Z,99251.80
2022-09-26T09:21:42.131Z,99252.80
2022-09-26T09:24:53.115Z,99254.20
2022-09-26T09:27:53.496Z,99252.00
2022-09-26T09:30:38.393Z,99249.60
2022-09-26T09:33:38.435Z,99242.60
2022-09-26T09:36:46.731Z,99248.40
2022-09-26T09:39:36.744Z,99251.80
2022-09-26T09:42:31.082Z,99253.20
2022-09-26T09:45:15.888Z,99257.60
2022-09-26T09:47:53.370Z,99258.80
2022-09-26T09:50:42.052Z,99260.80
2022-09-26T09:53:37.319Z,99268.40
2022-09-26T09:56:27.342Z,99264.00
2022-09-26T09:59:31.961Z,99266.00
2022-09-26T10:02:28.837Z,99271.80
2022-09-26T10:05:24.082Z,99271.80
2022-09-26T10:08:04.801Z,99276.80
2022-09-26T10:11:14.717Z,99278.40
2022-09-26T10:14:37.301Z,99277.60
2022-09-26T10:17:25.035Z,99271.60
2022-09-26T10:20:43.597Z,99275.40
2022-09-26T10:23:27.951Z,99278.60
2022-09-26T10:26:06.021Z,99277.60
2022-09-26T10:28:48.563Z,99281.20
2022-09-26T10:31:30.481Z,99285.60
2022-09-26T10:34:28.935Z,99286.20
2022-09-26T10:37:24.771Z,99288.40
2022-09-26T10:40:48.574Z,99287.40
2022-09-26T10:43:35.474Z,99290.40
2022-09-26T10:46:25.597Z,99292.00
2022-09-26T10:49:23.715Z,99291.80
2022-09-26T10:52:28.709Z,99297.80
2022-09-26T10:55:09.605Z,99295.20
2022-09-26T10:57:51.028Z,99291.40
2022-09-26T11:00:43.731Z,99288.00
2022-09-26T11:03:34.035Z,99282.40
2022-09-26T11:06:36.190Z,99279.80
2022-09-26T11:09:33.129Z,99280.60
2022-09-26T11:12:31.820Z,99279.20
2022-09-26T11:15:19.491Z,99277.60
2022-09-26T11:17:55.838Z,99277.80
2022-09-26T11:20:40.802Z,99277.80
2022-09-26T11:23:40.713Z,99276.80
2022-09-26T11:26:25.690Z,99277.60
2022-09-26T11:29:14.569Z,99277.40
2022-09-26T11:32:02.616Z,99281.60
2022-09-26T11:35:06.239Z,99273.60
2022-09-26T11:38:06.343Z,99277.60
2022-09-26T11:41:12.183Z,99268.80
2022-09-26T11:44:01.883Z,99271.60
2022-09-26T11:47:44.043Z,99272.60
2022-09-26T11:50:41.453Z,99265.20
2022-09-26T11:54:02.686Z,99261.20
2022-09-26T11:56:56.489Z,99260.80
2022-09-26T11:59:52.786Z,99254.20
2022-09-26T12:02:54.706Z,99257.80
2022-09-26T12:05:49.018Z,99253.40
2022-09-26T12:08:57.937Z,99247.80
2022-09-26T12:11:42.568Z,99255.00
2022-09-26T12:14:37.179Z,99249.60
2022-09-26T12:17:21.751Z,99242.60
2022-09-26T12:20:07.019Z,99244.60
2022-09-26T12:22:50.277Z,99244.40
2022-09-26T12:25:55.892Z,99242.00
2022-09-26T12:28:59.091Z,99247.20
2022-09-26T12:32:01.467Z,99246.00
2022-09-26T12:34:57.856Z,99247.40
2022-09-26T12:37:57.993Z,99248.80
2022-09-26T12:40:45.773Z,99245.80
2022-09-26T12:43:45.077Z,99244.60
2022-09-26T12:46:49.068Z,99238.80
2022-09-26T12:50:08.996Z,99243.00
2022-09-26T12:53:19.645Z,99234.40
2022-09-26T12:56:07.423Z,99227.40
2022-09-26T12:59:07.079Z,99222.20
2022-09-26T13:02:04.441Z,99220.00
2022-09-26T13:05:19.408Z,99216.00
2022-09-26T13:08:10.566Z,99216.00
2022-09-26T13:11:04.446Z,99217.20
2022-09-26T13:14:27.338Z,99219.60
2022-09-26T13:17:13.904Z,99213.20
2022-09-26T13:19:56.240Z,99213.20
2022-09-26T13:22:44.440Z,99211.00
2022-09-26T13:25:24.063Z,99204.40
2022-09-26T13:28:07.639Z,99207.00
2022-09-26T13:30:49.080Z,99206.20
2022-09-26T13:33:30.193Z,99207.40
2022-09-26T13:36:10.221Z,99203.80
2022-09-26T13:38:58.190Z,99199.60
2022-09-26T13:41:44.137Z,99201.40
2022-09-26T13:44:44.751Z,99198.80
2022-09-26T13:47:34.732Z,99191.60
2022-09-26T13:50:25.596Z,99184.00
2022-09-26T13:53:16.912Z,99185.20
2022-09-26T13:56:46.390Z,99177.40
2022-09-26T13:59:51.690Z,99186.00
2022-09-26T14:02:29.852Z,99181.80
2022-09-26T14:05:51.184Z,99185.40
2022-09-26T14:08:52.489Z,99183.80
2022-09-26T14:11:45.279Z,99185.20
2022-09-26T14:14:49.494Z,99186.60
2022-09-26T14:18:22.297Z,99183.60
2022-09-26T14:21:17.409Z,99169.80
2022-09-26T14:24:14.305Z,99159.80
2022-09-26T14:27:04.891Z,99155.00
2022-09-26T14:29:54.402Z,99148.20
2022-09-26T14:32:37.899Z,99144.40
2022-09-26T14:35:29.149Z,99142.40
2022-09-26T14:38:10.604Z,99132.20
2022-09-26T14:40:59.212Z,99129.20
2022-09-26T14:43:36.972Z,99123.20
2022-09-26T14:46:23.769Z,99119.00
2022-09-26T14:49:06.546Z,99120.80
2022-09-26T14:51:49.270Z,99119.20
2022-09-26T14:54:37.569Z,99118.20
2022-09-26T14:57:39.567Z,99113.00
2022-09-26T15:00:44.873Z,99101.60
2022-09-26T15:03:23.007Z,99106.00
2022-09-26T15:06:00.969Z,99108.80
2022-09-26T15:08:39.447Z,99114.20
2022-09-26T15:11:34.807Z,99104.00
2022-09-26T15:14:24.521Z,99101.00
2022-09-26T15:17:02.732Z,99096.80
2022-09-26T15:19:42.888Z,99088.20
2022-09-26T15:22:20.973Z,99081.40
2022-09-26T15:25:11.170Z,99076.40
2022-09-26T15:27:51.482Z,99075.00
2022-09-26T15:30:37.455Z,99079.80
2022-09-26T15:33:18.786Z,99082.00
2022-09-26T15:36:02.560Z,99086.40
2022-09-26T15:38:36.635Z,99091.40
2022-09-26T15:41:39.533Z,99086.80
2022-09-26T15:44:29.308Z,99087.40
2022-09-26T15:47:26.390Z,99093.40
2022-09-26T15:50:15.968Z,99086.00
2022-09-26T15:52:57.132Z,99080.20
2022-09-26T15:55:39.526Z,99076.60
2022-09-26T15:58:22.004Z,99078.60
2022-09-26T16:01:02.423Z,99082.20
2022-09-26T16:03:48.214Z,99087.00
2022-09-26T16:06:30.997Z,99090.00
2022-09-26T16:09:19.333Z,99098.80
2022-09-26T16:11:58.862Z,99099.80
2022-09-26T16:14:41.718Z,99102.40
2022-09-26T16:17:32.537Z,99105.40
2022-09-26T16:20:30.446Z,99108.00
2022-09-26T16:23:06.611Z,99110.00
2022-09-26T16:25:56.813Z,99110.00
2022-09-26T16:28:48.428Z,99110.00
2022-09-26T16:31:39.725Z,99106.00
2022-09-26T16:34:26.196Z,99115.40
2022-09-26T16:37:01.835Z,99111.80
2022-09-26T16:39:36.000Z,99119.60
2022-09-26T16:42:21.946Z,99123.60
2022-09-26T16:44:57.842Z,99127.00
2022-09-26T16:47:44.183Z,99125.40
2022-09-26T16:50:33.388Z,99132.40
2022-09-26T16:53:12.006Z,99130.20
2022-09-26T16:55:46.237Z,99132.60
2022-09-26T16:58:25.734Z,99139.20
2022-09-26T17:01:18.167Z,99137.80
2022-09-26T17:03:52.518Z,99147.00
2022-09-26T17:06:26.358Z,99147.40
2022-09-26T17:09:13.352Z,99149.20
2022-09-26T17:11:49.769Z,99151.60
2022-09-26T17:14:29.574Z,99150.60
2022-09-26T17:17:06.141Z,99147.60
2022-09-26T17:19:44.850Z,99145.60
2022-09-26T17:22:21.478Z,99145.80
2022-09-26T17:24:56.110Z,99147.40
2022-09-26T17:27:34.384Z,99149.80
2022-09-26T17:30:15.775Z,99146.00
2022-09-26T17:32:54.572Z,99139.40
2022-09-26T17:35:33.394Z,99145.40
2022-09-26T17:38:07.745Z,99139.60
2022-09-26T17:40:44.503Z,99139.40
2022-09-26T17:43:18.843Z,99143.20
2022-09-26T17:45:55.079Z,99140.20
2022-09-26T17:48:32.551Z,99146.40
2022-09-26T17:51:14.633Z,99143.40
2022-09-26T17:53:52.735Z,99142.20
2022-09-26T17:56:27.551Z,99144.00
2022-09-26T17:59:02.555Z,99143.40
2022-09-26T18:01:37.445Z,99143.20
2022-09-26T18:04:17.954Z,99142.40
2022-09-26T18:06:52.395Z,99144.80
2022-09-26T18:09:27.403Z,99137.80
2022-09-26T18:12:05.289Z,99141.00
2022-09-26T18:14:42.297Z,99137.40
2022-09-26T18:17:19.774Z,99138.80
2022-09-26T18:19:56.423Z,99134.40
2022-09-26T18:22:33.516Z,99135.00
2022-09-26T18:25:19.149Z,99136.60
2022-09-26T18:27:57.042Z,99142.80
2022-09-26T18:30:31.379Z,99141.20
2022-09-26T18:33:07.648Z,99136.00
2022-09-26T18:35:44.217Z,99139.80
2022-09-26T18:38:19.034Z,99140.00
2022-09-26T18:40:58.831Z,99139.20
2022-09-26T18:43:38.979Z,99137.20
2022-09-26T18:46:19.154Z,99131.80
2022-09-26T18:48:56.908Z,99124.60
2022-09-26T18:51:31.755Z,99125.60
2022-09-26T18:54:12.292Z,99128.20
2022-09-26T18:57:04.073Z,99124.40
2022-09-26T18:59:38.098Z,99124.20
2022-09-26T19:02:24.331Z,99117.40
2022-09-26T19:05:02.690Z,99117.00
2022-09-26T19:07:37.181Z,99118.00
2022-09-26T19:10:18.867Z,99114.40
2022-09-26T19:12:53.271Z,99114.80
2022-09-26T19:15:29.068Z,99120.20
2022-09-26T19:18:03.465Z,99119.60
2022-09-26T19:20:37.382Z,99115.60
2022-09-26T19:23:16.290Z,99110.40
2022-09-26T19:25:51.623Z,99110.60
2022-09-26T19:28:32.560Z,99112.00
2022-09-26T19:31:10.668Z,99110.40
2022-09-26T19:33:51.431Z,99108.60
2022-09-26T19:36:26.463Z,99102.40
2022-09-26T19:39:02.793Z,99106.40
2022-09-26T19:41:37.805Z,99099.20
2022-09-26T19:44:13.577Z,99091.80
2022-09-26T19:46:50.449Z,99092.20
2022-09-26T19:49:28.713Z,99084.40
2022-09-26T19:52:03.956Z,99084.80
2022-09-26T19:54:38.350Z,99082.40
2022-09-26T19:57:19.185Z,99080.40
2022-09-26T19:59:54.270Z,99078.20
2022-09-26T20:02:36.918Z,99086.40
2022-09-26T20:05:22.790Z,99091.40
2022-09-26T20:07:58.402Z,99092.40
2022-09-26T20:10:33.508Z,99093.40
2022-09-26T20:13:07.688Z,99092.00
2022-09-26T20:15:42.546Z,99095.80
2022-09-26T20:18:21.961Z,99096.80
2022-09-26T20:21:00.358Z,99095.60
2022-09-26T20:23:34.955Z,99095.20
2022-09-26T20:26:11.093Z,99097.40
2022-09-26T20:28:46.709Z,99096.80
2022-09-26T20:31:27.256Z,99102.20
2022-09-26T20:34:03.027Z,99092.80
2022-09-26T20:36:39.328Z,99095.80
2022-09-26T20:39:18.054Z,99095.60
2022-09-26T20:41:53.690Z,99094.00
2022-09-26T20:44:33.902Z,99094.00
2022-09-26T20:47:11.011Z,99095.20
2022-09-26T20:49:51.632Z,99088.60
2022-09-26T20:52:29.443Z,99085.60
2022-09-26T20:55:08.136Z,99079.80
2022-09-26T20:57:42.043Z,99082.60
2022-09-26T21:00:20.405Z,99081.40
2022-09-26T21:02:57.371Z,99080.20
2022-09-26T21:05:32.755Z,99079.20
2022-09-26T21:08:19.715Z,99078.40
2022-09-26T21:10:53.936Z,99076.00
2022-09-26T21:13:29.430Z,99069.40
2022-09-26T21:16:04.715Z,99065.80
2022-09-26T21:18:39.054Z,99057.00
2022-09-26T21:21:22.641Z,99058.20
2022-09-26T21:24:24.806Z,99055.40
2022-09-26T21:26:59.654Z,99053.20
2022-09-26T21:29:33.717Z,99052.40
2022-09-26T21:32:11.058Z,99049.00
2022-09-26T21:34:49.820Z,99051.20
2022-09-26T21:37:23.872Z,99044.40
2022-09-26T21:39:58.051Z,99043.60
2022-09-26T21:42:32.078Z,99036.60
2022-09-26T21:45:11.291Z,99032.60
2022-09-26T21:47:45.892Z,99032.40
2022-09-26T21:50:20.486Z,99030.80
2022-09-26T21:53:00.328Z,99035.20
2022-09-26T21:55:38.968Z,99029.00
2022-09-26T21:58:19.159Z,99031.60
2022-09-26T22:00:53.275Z,99031.60
2022-09-26T22:03:27.793Z,99027.40
2022-09-26T22:06:06.228Z,99017.80
2022-09-26T22:08:42.117Z,99015.60
2022-09-26T22:11:15.926Z,99010.20
2022-09-26T22:13:50.269Z,99009.20
2022-09-26T22:16:24.220Z,99002.60
2022-09-26T22:18:58.063Z,99002.40
2022-09-26T22:21:32.086Z,98998.20
2022-09-26T22:24:06.800Z,98996.40
2022-09-26T22:26:40.759Z,98988.00
2022-09-26T22:29:15.613Z,98994.80
2022-09-26T22:31:49.811Z,98990.80
2022-09-26T22:34:24.105Z,98983.60
2022-09-26T22:36:58.020Z,98979.60
2022-09-26T22:39:31.787Z,98983.60
2022-09-26T22:42:06.908Z,98979.80
2022-09-26T22:44:40.714Z,98970.20
2022-09-26T22:47:14.773Z,98972.60
2022-09-26T22:49:48.758Z,98967.20
2022-09-26T22:52:22.889Z,98962.40
2022-09-26T22:54:56.865Z,98964.00
2022-09-26T22:57:31.547Z,98959.40
2022-09-26T23:00:06.401Z,98957.00
2022-09-26T23:02:40.654Z,98956.80
2022-09-26T23:05:14.959Z,98950.20
2022-09-26T23:07:48.936Z,98946.00
2022-09-26T23:10:23.274Z,98946.40
2022-09-26T23:12:58.377Z,98941.80
2022-09-26T23:15:32.282Z,98937.60
2022-09-26T23:18:06.185Z,98932.60
2022-09-26T23:20:43.044Z,98928.60
2022-09-26T23:23:17.629Z,98930.20
2022-09-26T23:25:53.202Z,98921.40
2022-09-26T23:28:27.065Z,98918.80
2022-09-26T23:31:10.181Z,98910.80
2022-09-26T23:33:44.445Z,98910.60
2022-09-26T23:36:19.664Z,98902.60
2022-09-26T23:38:53.967Z,98903.40
2022-09-26T23:41:28.076Z,98901.60
2022-09-26T23:44:02.547Z,98898.00
2022-09-26T23:46:36.644Z,98898.00
2022-09-26T23:49:10.718Z,98895.40
2022-09-26T23:51:44.751Z,98888.40
2022-09-26T23:54:18.563Z,98888.20
2022-09-26T23:56:52.304Z,98884.40
2022-09-26T23:59:26.702Z,98889.80
